Time;durP1;ratioP1;P1;durP2;ratioP2;P2;SDS_P1;SDS_P2;PMS_P1;PMS_P2;Temp;Humidity;BMP_temperature;BMP_pressure;BME280_temperature;BME280_humidity;BME280_pressure;Samples;Min_cycle;Max_cycle;Signal;HPM_P1;HPM_P2
2021/10/24 00:01:58;;;;;;;34.92;14.20;;;;;;;4.89;82.48;100388.02;4004525;87;21196;-81
2021/10/24 00:08:00;;;;;;;33.25;13.72;;;;;;;4.77;82.51;100400.75;4006321;87;21057;-81
2021/10/24 00:14:04;;;;;;;31.25;13.93;;;;;;;4.74;82.89;100405.40;4001210;87;21109;-81
2021/10/24 00:20:06;;;;;;;35.10;13.68;;;;;;;4.61;82.98;100418.44;4005858;87;21089;-82
2021/10/24 00:26:07;;;;;;;33.13;13.20;;;;;;;4.45;83.03;100424.44;4009316;87;21030;-81
2021/10/24 00:32:10;;;;;;;34.98;13.75;;;;;;;4.31;83.54;100417.66;4002385;87;21113;-81
2021/10/24 00:38:11;;;;;;;32.73;13.22;;;;;;;4.08;83.76;100432.17;4023217;87;21097;-81
2021/10/24 00:44:29;;;;;;;38.05;14.83;;;;;;;4.13;85.38;100425.86;4028342;87;21100;-82
2021/10/24 00:50:33;;;;;;;34.50;14.58;;;;;;;4.01;84.18;100418.77;3975693;88;21060;-82
2021/10/24 00:56:35;;;;;;;33.05;13.72;;;;;;;4.05;84.09;100437.37;3967091;88;21068;-80
2021/10/24 01:02:36;;;;;;;40.60;15.08;;;;;;;4.09;84.84;100423.47;4011424;87;21110;-82
2021/10/24 01:08:38;;;;;;;39.67;14.63;;;;;;;4.18;85.83;100421.70;4009045;86;21573;-80
2021/10/24 01:14:39;;;;;;;33.28;13.85;;;;;;;4.23;86.41;100420.23;4007552;88;21094;-81
2021/10/24 01:20:41;;;;;;;35.98;15.05;;;;;;;4.45;86.83;100423.89;4033118;87;21081;-81
2021/10/24 01:26:42;;;;;;;31.27;13.45;;;;;;;4.64;86.40;100434.64;4017390;87;21537;-83
2021/10/24 01:32:44;;;;;;;31.82;14.18;;;;;;;4.84;86.01;100432.88;3975142;88;21080;-81
2021/10/24 01:38:53;;;;;;;35.48;14.45;;;;;;;5.02;85.82;100429.80;3929130;88;21092;-82
2021/10/24 01:44:52;;;;;;;37.60;14.77;;;;;;;5.15;85.59;100433.06;4038787;86;20992;-80
2021/10/24 01:50:55;;;;;;;34.05;14.35;;;;;;;5.20;85.47;100437.81;4045180;86;21031;-81
2021/10/24 01:56:57;;;;;;;31.15;14.50;;;;;;;5.20;85.47;100442.46;3991288;88;21095;-81
2021/10/24 02:02:59;;;;;;;35.50;15.50;;;;;;;5.16;85.31;100450.40;3992825;88;21108;-81
2021/10/24 02:09:06;;;;;;;38.55;15.40;;;;;;;5.17;85.36;100449.28;3990446;88;21093;-81
2021/10/24 02:15:10;;;;;;;36.08;15.05;;;;;;;5.23;85.25;100448.06;4044623;86;21078;-81
2021/10/24 02:21:13;;;;;;;37.00;14.33;;;;;;;5.29;85.35;100443.34;3990177;88;21003;-81
2021/10/24 02:27:16;;;;;;;36.38;14.23;;;;;;;5.36;85.46;100448.59;3981197;87;21035;-81
2021/10/24 02:33:18;;;;;;;38.75;14.65;;;;;;;5.43;85.36;100442.75;3980771;88;21016;-81
2021/10/24 02:39:31;;;;;;;32.40;14.58;;;;;;;5.48;85.50;100449.44;3942323;88;21086;-81
2021/10/24 02:45:36;;;;;;;34.75;13.93;;;;;;;5.50;85.44;100453.44;3991061;88;21010;-81
2021/10/24 02:51:37;;;;;;;34.35;14.55;;;;;;;5.53;85.25;100456.12;3967959;88;21071;-81
2021/10/24 02:57:38;;;;;;;33.75;13.72;;;;;;;5.51;85.01;100466.47;3995778;88;21559;-82
2021/10/24 03:03:40;;;;;;;33.73;13.78;;;;;;;5.46;84.98;100462.51;3990342;87;21022;-81
2021/10/24 03:09:42;;;;;;;34.95;14.03;;;;;;;5.28;85.00;100468.32;3983227;87;21067;-81
2021/10/24 03:15:45;;;;;;;32.48;14.65;;;;;;;5.09;85.26;100471.70;3950860;87;21143;-81
2021/10/24 03:21:47;;;;;;;32.38;14.73;;;;;;;4.95;85.41;100471.48;3995753;88;22381;-81
2021/10/24 03:27:48;;;;;;;33.88;15.20;;;;;;;4.82;85.51;100470.38;3984531;88;21554;-80
2021/10/24 03:33:51;;;;;;;35.65;14.87;;;;;;;4.79;85.53;100477.20;3972518;88;21141;-81
2021/10/24 03:39:53;;;;;;;36.25;15.13;;;;;;;4.68;85.60;100492.06;4000108;88;21082;-81
2021/10/24 03:45:55;;;;;;;32.78;13.48;;;;;;;4.67;85.47;100495.08;4000057;88;21022;-81
2021/10/24 03:51:58;;;;;;;28.38;14.28;;;;;;;4.61;85.63;100501.70;3971094;87;21558;-81
2021/10/24 03:57:59;;;;;;;33.00;15.10;;;;;;;4.58;85.68;100504.47;3980404;87;21098;-81
2021/10/24 04:04:01;;;;;;;33.67;13.15;;;;;;;4.53;85.56;100499.13;3999421;88;21098;-82
2021/10/24 04:10:04;;;;;;;33.28;14.38;;;;;;;4.43;85.53;100510.72;3987263;88;21576;-80
2021/10/24 04:16:05;;;;;;;34.50;14.53;;;;;;;4.32;85.57;100507.35;3994295;88;21083;-80
2021/10/24 04:22:14;;;;;;;34.33;13.65;;;;;;;4.23;85.62;100494.77;3948989;88;21586;-81
2021/10/24 04:28:17;;;;;;;36.28;14.63;;;;;;;4.21;85.63;100492.94;3995999;87;21114;-81
2021/10/24 04:34:20;;;;;;;28.80;13.25;;;;;;;4.11;85.72;100510.70;3980829;87;21089;-80
2021/10/24 04:40:22;;;;;;;29.98;12.30;;;;;;;4.10;85.71;100526.16;3954192;89;21144;-80
2021/10/24 04:46:25;;;;;;;28.62;12.90;;;;;;;4.11;85.94;100534.55;3953034;88;21044;-82
2021/10/24 04:52:26;;;;;;;21.60;10.30;;;;;;;4.10;85.88;100542.41;3957101;89;21571;-81
2021/10/24 04:58:27;;;;;;;33.48;13.78;;;;;;;4.08;85.84;100547.34;3966878;87;21058;-80
2021/10/24 05:04:29;;;;;;;30.23;13.22;;;;;;;3.98;85.86;100550.20;3956091;89;21094;-81
2021/10/24 05:10:30;;;;;;;28.40;14.38;;;;;;;3.87;85.56;100552.02;3950090;89;21741;-80
2021/10/24 05:16:31;;;;;;;32.78;14.55;;;;;;;3.83;85.89;100557.74;3950545;89;21120;-80
2021/10/24 05:22:33;;;;;;;29.07;13.95;;;;;;;3.78;85.83;100564.58;3965026;89;21059;-81
2021/10/24 05:28:35;;;;;;;23.57;10.85;;;;;;;3.65;85.73;100568.03;3960723;89;21020;-80
2021/10/24 05:34:36;;;;;;;26.62;11.40;;;;;;;3.63;85.92;100577.80;3955010;87;21606;-82
2021/10/24 05:40:42;;;;;;;30.23;12.55;;;;;;;3.66;85.74;100583.98;3946282;89;21059;-81
2021/10/24 05:46:46;;;;;;;24.12;11.55;;;;;;;3.54;85.55;100600.40;3947838;89;21067;-81
2021/10/24 05:52:48;;;;;;;23.77;12.05;;;;;;;3.41;85.81;100608.67;3954325;89;21139;-83
2021/10/24 05:59:16;;;;;;;27.98;13.10;;;;;;;3.31;85.63;100602.02;3957942;89;22033;-81
2021/10/24 06:05:43;;;;;;;22.17;11.03;;;;;;;3.23;85.65;100610.77;3657588;95;21151;-82
2021/10/24 06:11:57;;;;;;;26.00;12.07;;;;;;;3.30;86.21;100618.00;3785235;88;21066;-81
2021/10/24 06:17:52;;;;;;;23.12;10.40;;;;;;;3.33;86.30;100621.48;3951740;89;21106;-81
2021/10/24 06:23:53;;;;;;;29.25;12.43;;;;;;;3.49;86.52;100632.94;3957206;87;21082;-81
2021/10/24 06:29:55;;;;;;;30.45;13.68;;;;;;;3.64;86.33;100636.81;3952781;87;21064;-81
2021/10/24 06:35:58;;;;;;;51.95;22.65;;;;;;;3.81;86.41;100644.72;3946010;88;21061;-81
2021/10/24 06:42:20;;;;;;;40.43;19.35;;;;;;;3.96;86.39;100645.86;3868356;90;21073;-80
2021/10/24 06:48:21;;;;;;;44.70;18.73;;;;;;;4.12;86.32;100651.34;3975768;88;21940;-82
2021/10/24 06:54:40;;;;;;;42.48;18.27;;;;;;;4.29;86.13;100658.41;4007743;87;21082;-82
2021/10/24 07:00:43;;;;;;;42.25;18.73;;;;;;;4.43;86.12;100667.98;3972464;88;21059;-82
2021/10/24 07:07:04;;;;;;;44.33;18.45;;;;;;;4.73;86.93;100662.88;3981546;88;21119;-81
2021/10/24 07:13:13;;;;;;;34.90;15.80;;;;;;;5.12;87.04;100653.55;3996691;87;21082;-80
2021/10/24 07:19:16;;;;;;;35.17;15.03;;;;;;;5.86;87.15;100665.42;3983636;88;21074;-81
2021/10/24 07:25:18;;;;;;;31.30;14.15;;;;;;;6.57;86.84;100661.94;3991820;88;21086;-81
2021/10/24 07:31:53;;;;;;;36.85;14.47;;;;;;;7.05;85.77;100654.73;3990619;87;21074;-81
2021/10/24 07:38:16;;;;;;;28.77;12.88;;;;;;;7.41;85.09;100658.13;3959311;88;21150;-81
2021/10/24 07:44:18;;;;;;;28.77;14.15;;;;;;;7.73;84.91;100656.43;3950405;89;21058;-82
2021/10/24 07:50:20;;;;;;;33.88;13.35;;;;;;;8.08;84.48;100664.14;3954478;89;21586;-82
2021/10/24 07:56:23;;;;;;;31.12;13.88;;;;;;;8.50;83.99;100663.41;3953287;89;21105;-82
2021/10/24 08:02:35;;;;;;;27.48;12.37;;;;;;;8.79;83.75;100671.74;3968673;89;21118;-81
2021/10/24 08:08:39;;;;;;;33.30;13.45;;;;;;;9.03;82.95;100672.05;3950893;89;21112;-82
2021/10/24 08:14:40;;;;;;;29.55;13.62;;;;;;;9.75;83.72;100665.94;3956478;87;21065;-80
2021/10/24 08:20:44;;;;;;;26.75;12.45;;;;;;;10.54;82.91;100676.91;3947515;89;21078;-82
2021/10/24 08:26:45;;;;;;;22.60;12.33;;;;;;;11.34;82.46;100668.06;3959150;89;21558;-80
2021/10/24 08:32:51;;;;;;;23.67;11.45;;;;;;;12.15;81.45;100677.05;3962803;89;21120;-82
2021/10/24 08:38:57;;;;;;;25.32;11.40;;;;;;;12.59;80.53;100684.30;3970085;88;21114;-81
2021/10/24 08:45:01;;;;;;;22.77;11.55;;;;;;;13.42;78.90;100687.06;4006337;87;21076;-82
2021/10/24 08:51:03;;;;;;;26.55;11.83;;;;;;;13.71;77.73;100689.41;3987524;88;21066;-82
2021/10/24 08:57:04;;;;;;;18.32;9.95;;;;;;;13.79;76.84;100680.74;3924244;89;21514;-83
2021/10/24 09:03:11;;;;;;;22.50;9.43;;;;;;;14.52;76.51;100682.30;4038189;87;21031;-79
2021/10/24 09:09:18;;;;;;;19.30;9.33;;;;;;;15.05;75.12;100691.10;4042738;86;21990;-81
2021/10/24 09:15:20;;;;;;;27.35;11.03;;;;;;;15.68;74.70;100690.92;3926861;89;21078;-83
2021/10/24 09:21:25;;;;;;;20.60;9.18;;;;;;;15.75;73.28;100699.91;4044000;87;21663;-82
2021/10/24 09:28:23;;;;;;;22.82;10.25;;;;;;;16.33;72.68;100704.02;3923854;89;21115;-82
2021/10/24 09:34:27;;;;;;;;;;;;;;;16.87;71.70;100698.29;3914727;87;21100;-81
2021/10/24 09:40:42;;;;;;;13.13;6.20;;;;;;;16.93;67.79;100698.16;4017498;86;20146;-82
2021/10/24 09:46:57;;;;;;;16.07;6.62;;;;;;;17.30;68.91;100709.28;4004773;87;21140;-81
2021/10/24 09:53:26;;;;;;;16.37;5.45;;;;;;;17.23;66.71;100705.64;4038753;86;21052;-81
2021/10/24 09:59:28;;;;;;;13.35;6.17;;;;;;;16.86;66.60;100704.20;4004042;87;21050;-81
2021/10/24 10:05:30;;;;;;;14.38;5.37;;;;;;;16.75;65.43;100706.83;4007094;87;21026;-81
2021/10/24 10:11:42;;;;;;;13.10;5.72;;;;;;;16.71;62.06;100699.06;4008223;87;21111;-83
2021/10/24 10:17:44;;;;;;;11.55;3.87;;;;;;;16.35;62.34;100700.30;4034215;87;21114;-82
2021/10/24 10:23:45;;;;;;;13.68;4.55;;;;;;;15.70;62.29;100698.26;4042595;86;21042;-81
2021/10/24 10:29:59;;;;;;;12.82;4.70;;;;;;;15.07;61.47;100698.41;4038244;86;21450;-81
2021/10/24 10:36:04;;;;;;;7.00;2.47;;;;;;;14.98;61.15;100695.89;3944576;89;21041;-81
2021/10/24 10:42:35;;;;;;;8.33;2.45;;;;;;;14.32;59.67;100690.29;3948556;89;21025;-82
2021/10/24 10:48:43;;;;;;;11.00;2.83;;;;;;;13.59;59.10;100693.59;3936762;89;21483;-81
2021/10/24 10:54:56;;;;;;;9.15;3.15;;;;;;;13.29;60.07;100690.23;4004221;87;21604;-82
2021/10/24 11:00:57;;;;;;;11.38;2.83;;;;;;;13.53;58.98;100679.88;4006167;87;21601;-82
2021/10/24 11:07:00;;;;;;;9.75;2.72;;;;;;;13.77;58.56;100673.41;4007091;87;21045;-81
2021/10/24 11:21:28;;;;;;;6.90;2.17;;;;;;;13.94;57.49;100663.41;3900766;89;21208;-82
2021/10/24 11:28:03;;;;;;;;;;;;;;;;;;;;;
2021/10/24 11:34:33;;;;;;;6.33;2.00;;;;;;;13.31;54.20;100657.69;3904600;90;21157;-82
2021/10/24 11:40:40;;;;;;;8.30;2.45;;;;;;;13.17;55.34;100655.34;3937275;89;21715;-83
2021/10/24 11:46:41;;;;;;;6.80;2.40;;;;;;;13.19;54.62;100647.55;3936973;89;21135;-83
2021/10/24 11:52:43;;;;;;;9.35;2.27;;;;;;;12.92;54.51;100642.84;3989052;88;21023;-83
2021/10/24 11:59:05;;;;;;;8.55;2.50;;;;;;;12.55;54.26;100640.83;3981560;88;21093;-82
2021/10/24 12:04:55;;;;;;;10.98;2.60;;;;;;;12.40;53.96;100626.44;3977624;87;21198;-83
2021/10/24 12:10:57;;;;;;;11.85;2.98;;;;;;;12.03;53.28;100609.83;4007988;87;21759;-83
2021/10/24 12:16:58;;;;;;;7.03;2.92;;;;;;;11.89;51.57;100613.51;3939820;89;21132;-83
2021/10/24 12:23:04;;;;;;;7.60;2.65;;;;;;;11.71;52.72;100609.98;3999859;87;21081;-82
2021/10/24 12:29:18;;;;;;;7.12;2.65;;;;;;;11.37;50.24;100611.77;4007764;87;21157;-81
2021/10/24 12:35:19;;;;;;;5.12;2.12;;;;;;;11.33;51.41;100608.09;4009085;87;21034;-83
2021/10/24 12:41:54;;;;;;;4.70;1.85;;;;;;;11.44;52.46;100599.09;3937240;89;21139;-82
2021/10/24 12:47:58;;;;;;;8.50;1.92;;;;;;;11.56;52.35;100594.19;3998551;86;21053;-81
2021/10/24 12:54:04;;;;;;;7.72;2.20;;;;;;;11.57;51.73;100590.30;4114905;85;21026;-82
2021/10/24 13:00:07;;;;;;;10.03;2.58;;;;;;;11.47;52.01;100584.69;4099401;86;21633;-83
2021/10/24 13:06:08;;;;;;;6.97;2.37;;;;;;;11.26;51.58;100594.16;4125263;84;21061;-83
2021/10/24 13:12:10;;;;;;;7.65;2.22;;;;;;;11.10;52.13;100586.58;4123588;84;21026;-82
2021/10/24 13:18:14;;;;;;;5.00;2.17;;;;;;;11.32;52.94;100584.01;4125322;84;21078;-81
2021/10/24 13:24:18;;;;;;;5.95;2.47;;;;;;;11.38;51.14;100575.78;4122830;86;21605;-82
2021/10/24 13:30:22;;;;;;;6.20;2.20;;;;;;;11.16;52.15;100575.41;4121627;84;21082;-82
2021/10/24 13:36:24;;;;;;;9.68;2.72;;;;;;;11.22;52.39;100574.03;4124613;85;21054;-83
2021/10/24 13:42:25;;;;;;;8.13;2.47;;;;;;;11.12;52.11;100569.02;4118628;84;21139;-82
2021/10/24 13:48:27;;;;;;;10.53;2.25;;;;;;;10.97;52.16;100564.42;4077725;85;21068;-82
2021/10/24 13:54:29;;;;;;;8.78;2.50;;;;;;;10.88;52.39;100562.92;4086093;85;21040;-82
2021/10/24 14:00:30;;;;;;;5.30;1.85;;;;;;;10.83;52.75;100557.09;4082715;85;21009;-82
2021/10/24 14:06:31;;;;;;;8.03;2.62;;;;;;;10.83;53.10;100560.39;4077370;86;21009;-82
2021/10/24 14:12:33;;;;;;;7.03;2.17;;;;;;;10.77;52.88;100546.09;4079245;86;21534;-82
2021/10/24 14:18:35;;;;;;;7.17;3.08;;;;;;;10.68;53.24;100545.39;4069088;86;21097;-82
2021/10/24 14:24:36;;;;;;;6.65;2.65;;;;;;;10.59;52.96;100547.42;4080845;85;21056;-82
2021/10/24 14:30:38;;;;;;;11.08;2.80;;;;;;;10.52;53.12;100547.75;4079008;86;21081;-82
2021/10/24 14:36:41;;;;;;;8.50;2.08;;;;;;;10.43;53.19;100538.83;4082531;86;21101;-83
2021/10/24 14:42:42;;;;;;;11.95;2.40;;;;;;;10.36;53.79;100544.84;4073551;86;21593;-82
2021/10/24 14:48:44;;;;;;;7.00;1.98;;;;;;;10.30;53.30;100528.95;4117891;84;21018;-82
2021/10/24 14:54:45;;;;;;;12.15;3.65;;;;;;;10.16;53.66;100517.48;4107250;86;21078;-82
2021/10/24 15:00:46;;;;;;;9.28;2.90;;;;;;;10.07;53.87;100509.34;4117695;84;21021;-82
2021/10/24 15:06:48;;;;;;;8.68;2.45;;;;;;;9.95;54.12;100498.88;4117421;84;21490;-82
2021/10/24 15:12:49;;;;;;;9.05;2.55;;;;;;;9.87;54.60;100499.18;4127145;85;21030;-82
2021/10/24 15:24:59;;;;;;;8.80;3.05;;;;;;;9.59;55.65;100485.80;4114654;84;21117;-83
2021/10/24 15:31:02;;;;;;;10.82;3.85;;;;;;;9.46;56.05;100492.31;4105541;86;21857;-82
2021/10/24 15:37:04;;;;;;;12.78;4.62;;;;;;;9.21;56.42;100496.80;4110624;84;21066;-83
2021/10/24 15:43:05;;;;;;;13.43;4.03;;;;;;;8.78;57.07;100483.92;4112394;86;21013;-82
2021/10/24 15:49:11;;;;;;;17.42;6.60;;;;;;;8.44;57.67;100484.00;4075042;85;21118;-83
2021/10/24 15:55:13;;;;;;;23.10;7.37;;;;;;;8.10;58.30;100479.95;4085206;86;21089;-84
2021/10/24 16:01:14;;;;;;;19.32;7.72;;;;;;;7.83;58.78;100483.81;4086213;86;21504;-83
2021/10/24 16:07:15;;;;;;;28.23;11.53;;;;;;;7.61;59.40;100484.54;4085803;86;21152;-82
2021/10/24 16:13:17;;;;;;;30.43;10.70;;;;;;;7.41;59.81;100483.77;4081009;86;20977;-83
2021/10/24 16:19:22;;;;;;;31.05;11.35;;;;;;;7.23;60.33;100480.78;4078298;85;21735;-83
2021/10/24 16:25:25;;;;;;;28.57;12.00;;;;;;;7.14;60.53;100488.13;4069831;86;21025;-83
2021/10/24 16:31:27;;;;;;;27.00;12.18;;;;;;;6.98;60.76;100486.41;4068829;85;21081;-82
2021/10/24 16:37:31;;;;;;;31.73;15.35;;;;;;;6.89;61.23;100482.04;4087939;86;21052;-83
2021/10/24 16:43:32;;;;;;;29.12;14.05;;;;;;;6.86;61.58;100484.03;4089685;85;21046;-83
2021/10/24 16:49:33;;;;;;;33.85;14.85;;;;;;;6.81;62.09;100480.08;4083974;85;21009;-83
2021/10/24 16:55:34;;;;;;;33.00;15.35;;;;;;;6.69;62.27;100473.08;4067542;85;21061;-83
2021/10/24 17:01:36;;;;;;;34.35;17.02;;;;;;;6.56;62.50;100465.80;4083392;86;21089;-81
2021/10/24 17:07:38;;;;;;;35.68;16.85;;;;;;;6.43;62.88;100474.84;4091350;86;21020;-81
2021/10/24 17:13:39;;;;;;;34.55;15.98;;;;;;;6.33;63.23;100474.00;4079810;86;21629;-82
2021/10/24 17:19:46;;;;;;;43.00;19.70;;;;;;;6.21;63.72;100462.90;4082321;85;21061;-82
2021/10/24 17:25:44;;;;;;;35.50;16.85;;;;;;;6.17;64.22;100466.55;4089686;86;21672;-82
2021/10/24 17:31:46;;;;;;;33.15;18.32;;;;;;;6.04;64.55;100465.50;4082705;85;21087;-83
2021/10/24 17:37:47;;;;;;;27.58;15.00;;;;;;;5.82;64.68;100466.05;4089783;86;21532;-82
2021/10/24 17:43:48;;;;;;;40.33;20.30;;;;;;;5.35;65.31;100464.66;4010731;86;21643;-82
2021/10/24 17:49:50;;;;;;;44.73;23.57;;;;;;;5.18;65.98;100458.24;4125919;85;21009;-82
2021/10/24 17:55:51;;;;;;;41.63;22.48;;;;;;;5.04;66.71;100450.67;4115536;84;21037;-81
2021/10/24 18:01:53;;;;;;;54.77;27.52;;;;;;;4.95;67.09;100442.42;4120573;84;21112;-82
2021/10/24 18:07:54;;;;;;;47.03;26.27;;;;;;;4.82;67.38;100437.25;4115813;86;21068;-81
2021/10/24 18:13:56;;;;;;;53.00;28.27;;;;;;;4.57;67.56;100430.19;4132274;84;21002;-82
2021/10/24 18:19:57;;;;;;;65.30;28.98;;;;;;;4.43;68.22;100423.37;4134870;85;21510;-82
2021/10/24 18:25:59;;;;;;;53.85;26.30;;;;;;;4.39;68.56;100410.18;4133684;85;21498;-82
2021/10/24 18:32:00;;;;;;;46.98;24.27;;;;;;;4.40;69.05;100405.58;4101474;84;20990;-82
2021/10/24 18:38:02;;;;;;;37.33;18.73;;;;;;;4.36;69.20;100409.97;4121327;86;21864;-81
2021/10/24 18:44:05;;;;;;;41.42;20.62;;;;;;;4.09;69.56;100413.98;4130887;84;21070;-81
2021/10/24 18:50:08;;;;;;;50.80;24.57;;;;;;;3.99;70.33;100404.16;4124251;86;21061;-81
2021/10/24 18:56:10;;;;;;;43.08;22.42;;;;;;;3.97;70.27;100404.99;4134877;84;21046;-80
2021/10/24 19:02:12;;;;;;;51.18;23.05;;;;;;;3.93;70.54;100401.25;4138366;84;21069;-81
2021/10/24 19:08:13;;;;;;;55.73;25.05;;;;;;;3.91;70.64;100400.77;3994013;83;10000448;-81
2021/10/24 19:14:16;;;;;;;60.08;27.58;;;;;;;3.91;70.78;100399.41;4126931;84;21034;-81
2021/10/24 19:20:17;;;;;;;63.13;27.73;;;;;;;3.88;70.92;100403.26;4112899;86;21093;-81
2021/10/24 19:26:20;;;;;;;60.55;28.20;;;;;;;3.74;71.30;100404.58;4114672;85;21037;-81
2021/10/24 19:32:21;;;;;;;68.72;30.40;;;;;;;3.64;71.65;100408.80;4114044;86;21084;-81
2021/10/24 19:38:25;;;;;;;83.12;33.53;;;;;;;3.68;71.99;100400.89;4124042;84;21025;-81
2021/10/24 19:44:27;;;;;;;60.15;26.80;;;;;;;3.66;71.92;100399.84;4118481;84;21040;-80
2021/10/24 19:50:29;;;;;;;57.27;28.20;;;;;;;3.58;72.28;100399.16;4089978;85;21048;-81
2021/10/24 19:56:33;;;;;;;65.47;32.42;;;;;;;3.37;72.17;100396.48;4084800;85;21613;-81
2021/10/24 20:02:33;;;;;;;49.75;24.30;;;;;;;3.21;72.60;100391.84;4094184;85;21056;-81
2021/10/24 20:08:38;;;;;;;48.68;24.27;;;;;;;3.14;72.64;100382.49;4081566;86;21005;-81
2021/10/24 20:14:38;;;;;;;46.80;23.62;;;;;;;3.01;73.05;100389.97;4084011;85;21065;-81
2021/10/24 20:20:39;;;;;;;63.33;24.87;;;;;;;2.90;73.28;100397.97;4067734;86;21908;-81
2021/10/24 20:26:40;;;;;;;35.45;18.55;;;;;;;2.80;73.34;100398.11;4090714;86;20997;-81
2021/10/24 20:32:42;;;;;;;43.17;20.68;;;;;;;2.69;73.81;100397.98;4091593;86;21680;-80
2021/10/24 20:38:43;;;;;;;45.33;20.85;;;;;;;2.88;74.38;100396.91;4083031;85;21068;-80
2021/10/24 20:44:45;;;;;;;40.23;19.00;;;;;;;2.87;74.55;100398.55;4100487;85;21095;-81
2021/10/24 20:50:46;;;;;;;49.63;23.02;;;;;;;2.78;74.83;100408.41;4047939;86;21047;-81
2021/10/24 20:56:49;;;;;;;51.98;23.57;;;;;;;2.61;74.33;100408.08;4043642;86;22296;-81
2021/10/24 21:02:50;;;;;;;51.83;24.82;;;;;;;2.44;74.50;100401.80;4065529;86;21044;-82
2021/10/24 21:08:51;;;;;;;45.80;21.80;;;;;;;2.30;74.64;100402.20;4069825;86;21056;-80
2021/10/24 21:14:52;;;;;;;42.98;19.92;;;;;;;2.19;75.26;100403.95;4047993;86;21703;-80
2021/10/24 21:20:54;;;;;;;52.40;23.10;;;;;;;2.11;74.82;100405.92;4045983;86;21024;-81
2021/10/24 21:26:55;;;;;;;54.70;25.32;;;;;;;1.96;75.36;100406.87;4042596;86;21563;-81
2021/10/24 21:32:56;;;;;;;49.10;23.10;;;;;;;1.94;75.67;100398.27;4040720;86;21044;-80
2021/10/24 21:38:58;;;;;;;49.88;23.30;;;;;;;2.10;76.20;100400.27;4043054;86;22290;-80
2021/10/24 21:44:59;;;;;;;50.52;24.82;;;;;;;1.94;75.97;100395.56;4047017;86;21029;-81
2021/10/24 21:51:01;;;;;;;49.67;25.23;;;;;;;1.81;76.00;100398.92;4130698;84;21085;-81
2021/10/24 21:57:03;;;;;;;55.73;26.65;;;;;;;1.66;76.05;100392.28;4130790;85;21799;-81
2021/10/24 22:03:04;;;;;;;50.67;27.02;;;;;;;1.62;76.25;100385.84;4120255;84;21693;-81
2021/10/24 22:09:05;;;;;;;42.60;21.52;;;;;;;1.54;76.55;100381.87;4120274;84;21572;-82
2021/10/24 22:15:07;;;;;;;44.10;22.75;;;;;;;1.44;76.83;100385.98;4121847;84;21581;-82
2021/10/24 22:21:11;;;;;;;36.65;19.00;;;;;;;1.54;77.51;100387.27;4119650;86;21056;-81
2021/10/24 22:27:13;;;;;;;50.73;24.47;;;;;;;1.78;77.83;100383.28;4128876;84;21494;-81
2021/10/24 22:33:15;;;;;;;47.88;24.67;;;;;;;1.80;77.37;100383.00;4128699;84;21033;-82
2021/10/24 22:39:19;;;;;;;41.25;20.00;;;;;;;1.93;77.73;100387.19;4126355;84;21339;-81
2021/10/24 22:45:21;;;;;;;53.33;25.23;;;;;;;1.91;77.40;100381.25;4119371;85;20986;-81
2021/10/24 22:51:23;;;;;;;55.23;27.60;;;;;;;1.56;77.27;100383.75;4129888;84;21061;-80
2021/10/24 22:57:24;;;;;;;76.62;36.93;;;;;;;1.43;77.50;100374.94;4133679;85;21050;-82
2021/10/24 23:03:25;;;;;;;65.65;30.70;;;;;;;1.59;78.11;100379.66;4130064;86;21501;-81
2021/10/24 23:09:27;;;;;;;72.40;35.65;;;;;;;1.72;78.07;100370.11;4120331;84;21029;-81
2021/10/24 23:15:29;;;;;;;77.32;35.80;;;;;;;1.28;76.97;100370.20;4119706;86;21061;-83
2021/10/24 23:21:30;;;;;;;68.15;31.55;;;;;;;1.10;77.32;100370.31;4125337;84;21077;-82
2021/10/24 23:27:31;;;;;;;77.58;33.83;;;;;;;0.99;77.62;100372.81;4122441;84;22253;-82
2021/10/24 23:33:33;;;;;;;64.92;29.95;;;;;;;0.95;77.55;100367.72;4115260;85;21017;-82
2021/10/24 23:39:34;;;;;;;59.88;29.55;;;;;;;0.94;78.57;100365.30;4131813;86;21114;-82
2021/10/24 23:45:36;;;;;;;65.35;32.63;;;;;;;1.03;77.91;100364.44;4120108;85;21053;-82
2021/10/24 23:51:39;;;;;;;61.60;31.97;;;;;;;0.76;78.09;100336.28;4115351;86;21089;-82
2021/10/24 23:57:40;;;;;;;62.55;30.17;;;;;;;0.82;77.99;100354.84;4127079;86;21029;-82
